Time;durP1;ratioP1;P1;durP2;ratioP2;P2;SDS_P1;SDS_P2;PMS_P1;PMS_P2;Temp;Humidity;BMP_temperature;BMP_pressure;BME280_temperature;BME280_humidity;BME280_pressure;Samples;Min_cycle;Max_cycle;Signal;HPM_P1;HPM_P2
2023/05/25 00:01:42;;;;;;;8.60;5.53;;;12.20;99.90;;;;;;5096111;28;20491;-69
2023/05/25 00:04:09;;;;;;;11.47;6.83;;;12.20;99.90;;;;;;5095786;28;20457;-69
2023/05/25 00:06:40;;;;;;;17.40;6.57;;;12.10;99.90;;;;;;5095608;28;20622;-69
2023/05/25 00:09:07;;;;;;;10.23;6.10;;;12.10;99.90;;;;;;5095992;28;20507;-69
2023/05/25 00:11:34;;;;;;;10.03;6.23;;;12.10;99.90;;;;;;5096094;28;20533;-69
2023/05/25 00:14:01;;;;;;;11.03;5.63;;;12.20;99.90;;;;;;5095439;28;20913;-69
2023/05/25 00:16:27;;;;;;;9.03;5.90;;;12.20;99.90;;;;;;5095712;28;20463;-69
2023/05/25 00:18:56;;;;;;;8.40;5.50;;;12.10;99.90;;;;;;5095635;28;20453;-69
2023/05/25 00:21:23;;;;;;;8.43;5.20;;;12.10;99.90;;;;;;5095584;28;20481;-69
2023/05/25 00:23:51;;;;;;;8.70;5.47;;;12.20;99.90;;;;;;5095663;28;20503;-69
2023/05/25 00:26:18;;;;;;;8.77;5.40;;;12.10;99.90;;;;;;5095179;28;20495;-69
2023/05/25 00:28:45;;;;;;;13.53;6.20;;;12.10;99.90;;;;;;5095501;28;20486;-69
2023/05/25 00:31:11;;;;;;;9.77;5.37;;;12.20;99.90;;;;;;5095194;28;20453;-69
2023/05/25 00:33:38;;;;;;;10.63;6.07;;;12.20;99.90;;;;;;5095379;28;20453;-69
2023/05/25 00:36:07;;;;;;;7.83;5.63;;;12.20;99.90;;;;;;5095233;28;20992;-69
2023/05/25 00:38:34;;;;;;;9.33;6.20;;;12.20;99.90;;;;;;5095060;28;20901;-69
2023/05/25 00:41:02;;;;;;;11.90;6.17;;;12.30;99.90;;;;;;5095292;28;20531;-68
2023/05/25 00:43:29;;;;;;;7.37;5.30;;;12.30;99.90;;;;;;5095175;28;20453;-68
2023/05/25 00:45:56;;;;;;;10.13;5.80;;;12.30;99.90;;;;;;5095122;28;20550;-68
2023/05/25 00:48:23;;;;;;;8.00;6.17;;;12.40;99.90;;;;;;5095413;28;20700;-68
2023/05/25 00:50:56;;;;;;;11.97;5.70;;;12.30;99.90;;;;;;5095486;28;20457;-68
2023/05/25 00:53:24;;;;;;;8.37;5.60;;;12.30;99.90;;;;;;5094857;28;20921;-68
2023/05/25 00:55:57;;;;;;;10.43;5.80;;;12.30;99.90;;;;;;5094800;28;20468;-68
2023/05/25 00:58:27;;;;;;;11.50;6.27;;;12.30;99.90;;;;;;5095380;28;20467;-69
2023/05/25 01:00:57;;;;;;;7.00;5.03;;;12.30;99.90;;;;;;5094962;28;20442;-69
2023/05/25 01:03:28;;;;;;;8.13;5.83;;;12.30;99.90;;;;;;5094742;28;20489;-69
2023/05/25 01:05:57;;;;;;;8.57;5.93;;;12.20;99.90;;;;;;5094398;28;20911;-69
2023/05/25 01:08:25;;;;;;;10.10;5.83;;;12.20;99.90;;;;;;5094783;28;20795;-69
2023/05/25 01:10:52;;;;;;;6.67;5.23;;;12.20;99.90;;;;;;5095118;28;20472;-69
2023/05/25 01:13:20;;;;;;;10.83;6.67;;;12.20;99.90;;;;;;5094497;28;20789;-69
2023/05/25 01:15:49;;;;;;;7.53;5.70;;;12.10;99.90;;;;;;5094823;28;20462;-69
2023/05/25 01:18:17;;;;;;;9.00;5.37;;;12.10;99.90;;;;;;5094932;28;20463;-69
2023/05/25 01:20:57;;;;;;;6.37;5.03;;;12.10;99.90;;;;;;5094919;28;20465;-69
2023/05/25 01:23:30;;;;;;;9.57;5.83;;;12.20;99.90;;;;;;5094323;28;20967;-69
2023/05/25 01:26:01;;;;;;;8.97;5.30;;;12.10;99.90;;;;;;5094557;28;20451;-69
2023/05/25 01:28:32;;;;;;;9.13;5.63;;;12.00;99.90;;;;;;5094536;28;20441;-69
2023/05/25 01:31:00;;;;;;;7.20;5.10;;;12.00;99.90;;;;;;5094596;28;20467;-69
2023/05/25 01:33:28;;;;;;;7.97;5.03;;;12.00;99.90;;;;;;5094198;28;20445;-69
2023/05/25 01:35:57;;;;;;;10.33;5.70;;;12.00;99.90;;;;;;5094389;28;20927;-69
2023/05/25 01:38:25;;;;;;;8.43;5.93;;;12.00;99.90;;;;;;5094107;28;20961;-69
2023/05/25 01:40:51;;;;;;;11.80;6.93;;;12.00;99.90;;;;;;5094420;28;20557;-68
2023/05/25 01:43:18;;;;;;;9.70;5.90;;;11.90;99.90;;;;;;5093899;28;20973;-68
2023/05/25 01:45:46;;;;;;;8.63;5.43;;;11.90;99.90;;;;;;5094380;28;20464;-69
2023/05/25 01:48:20;;;;;;;9.63;6.03;;;11.90;99.90;;;;;;5094075;28;20457;-68
2023/05/25 01:50:54;;;;;;;11.67;5.77;;;11.80;99.90;;;;;;5094341;28;20442;-68
2023/05/25 01:53:26;;;;;;;11.13;5.33;;;11.80;99.90;;;;;;5094081;28;20486;-69
2023/05/25 01:55:56;;;;;;;9.03;6.10;;;11.80;99.90;;;;;;5094065;28;20452;-69
2023/05/25 01:58:25;;;;;;;9.90;5.70;;;11.70;99.90;;;;;;5094281;28;20454;-69
2023/05/25 02:00:54;;;;;;;10.57;6.00;;;11.60;99.90;;;;;;5094222;28;20786;-69
2023/05/25 02:03:21;;;;;;;7.60;5.30;;;11.50;99.90;;;;;;5094305;28;20483;-69
2023/05/25 02:05:48;;;;;;;8.77;5.77;;;11.40;99.90;;;;;;5094250;28;20453;-69
2023/05/25 02:08:15;;;;;;;10.40;6.03;;;11.40;99.90;;;;;;5094218;28;20483;-69
2023/05/25 02:10:43;;;;;;;10.77;6.87;;;11.40;99.90;;;;;;5094173;28;20454;-69
2023/05/25 02:13:10;;;;;;;14.43;6.43;;;11.40;99.90;;;;;;5094169;28;20544;-69
2023/05/25 02:15:37;;;;;;;9.30;5.30;;;11.30;99.90;;;;;;5094171;28;20854;-69
2023/05/25 02:18:04;;;;;;;15.13;6.30;;;11.30;99.90;;;;;;5093995;28;20476;-68
2023/05/25 02:20:31;;;;;;;13.50;6.37;;;11.30;99.90;;;;;;5096152;28;20465;-68
2023/05/25 02:22:58;;;;;;;9.80;6.47;;;11.20;99.90;;;;;;5097834;28;20793;-69
2023/05/25 02:25:25;;;;;;;11.27;6.10;;;11.20;99.90;;;;;;5098105;28;20459;-69
2023/05/25 02:27:53;;;;;;;10.43;6.13;;;11.30;99.90;;;;;;5097989;28;20530;-69
2023/05/25 02:30:20;;;;;;;9.37;6.20;;;11.30;99.90;;;;;;5098070;28;20539;-69
2023/05/25 02:32:47;;;;;;;9.60;6.43;;;11.30;99.90;;;;;;5097780;28;20449;-69
2023/05/25 02:35:14;;;;;;;11.83;7.50;;;11.20;99.90;;;;;;5097829;28;20544;-69
2023/05/25 02:37:41;;;;;;;8.90;6.00;;;11.20;99.90;;;;;;5097449;28;20481;-69
2023/05/25 02:40:09;;;;;;;13.30;7.03;;;11.20;99.90;;;;;;5097852;28;20457;-69
2023/05/25 02:42:36;;;;;;;13.70;7.03;;;11.20;99.90;;;;;;5097604;28;20481;-69
2023/05/25 02:45:05;;;;;;;8.67;6.20;;;11.20;99.90;;;;;;5097430;28;20464;-69
2023/05/25 02:47:32;;;;;;;11.03;6.77;;;11.20;99.90;;;;;;5097829;28;20514;-70
2023/05/25 02:49:59;;;;;;;9.03;6.17;;;11.30;99.90;;;;;;5097605;28;20555;-68
2023/05/25 02:52:26;;;;;;;13.23;6.90;;;11.30;99.90;;;;;;5096929;28;20514;-68
2023/05/25 02:54:52;;;;;;;10.00;6.60;;;11.20;99.90;;;;;;5097356;28;20540;-68
2023/05/25 02:57:20;;;;;;;13.67;7.07;;;11.20;99.90;;;;;;5097186;28;20906;-69
2023/05/25 02:59:47;;;;;;;11.63;7.53;;;11.20;99.90;;;;;;5097382;28;20479;-69
2023/05/25 03:02:17;;;;;;;8.43;6.10;;;11.10;99.90;;;;;;5097210;28;20972;-69
2023/05/25 03:04:44;;;;;;;11.47;6.77;;;11.10;99.90;;;;;;5097014;28;20453;-69
2023/05/25 03:07:11;;;;;;;12.47;7.70;;;11.10;99.90;;;;;;5096894;28;20518;-69
2023/05/25 03:09:38;;;;;;;8.90;6.53;;;11.10;99.90;;;;;;5096787;28;20458;-68
2023/05/25 03:12:05;;;;;;;11.40;6.50;;;11.10;99.90;;;;;;5097020;28;20461;-70
2023/05/25 03:14:32;;;;;;;9.27;6.57;;;11.10;99.90;;;;;;5097082;28;20461;-69
2023/05/25 03:16:59;;;;;;;10.57;6.70;;;11.00;99.90;;;;;;5097038;28;20841;-70
2023/05/25 03:19:27;;;;;;;12.87;7.13;;;11.00;99.90;;;;;;5096574;28;20518;-68
2023/05/25 03:21:54;;;;;;;13.30;6.67;;;11.00;99.90;;;;;;5096653;28;20453;-68
2023/05/25 03:24:21;;;;;;;13.23;6.90;;;11.00;99.90;;;;;;5096944;28;20560;-68
2023/05/25 03:26:48;;;;;;;15.23;7.57;;;11.00;99.90;;;;;;5096684;28;20453;-68
2023/05/25 03:29:14;;;;;;;11.10;7.80;;;11.00;99.90;;;;;;5096664;28;20458;-68
2023/05/25 03:31:41;;;;;;;9.30;7.00;;;11.00;99.90;;;;;;5096224;28;20457;-69
2023/05/25 03:34:08;;;;;;;10.30;7.60;;;10.90;99.90;;;;;;5096654;28;20460;-69
2023/05/25 03:36:37;;;;;;;13.20;7.73;;;11.00;99.90;;;;;;5096325;28;20576;-69
2023/05/25 03:39:04;;;;;;;17.80;8.10;;;11.00;99.90;;;;;;5096652;28;20453;-69
2023/05/25 03:41:31;;;;;;;18.10;7.40;;;11.00;99.90;;;;;;5096382;28;20453;-68
2023/05/25 03:43:58;;;;;;;16.53;7.93;;;11.10;99.90;;;;;;5096333;28;20492;-69
2023/05/25 03:46:25;;;;;;;10.70;7.70;;;11.10;99.90;;;;;;5096354;28;20461;-69
2023/05/25 03:48:52;;;;;;;11.40;7.67;;;11.10;99.90;;;;;;5096429;28;20454;-68
2023/05/25 03:51:19;;;;;;;11.13;8.30;;;11.10;99.90;;;;;;5096225;28;20457;-69
2023/05/25 03:53:47;;;;;;;10.70;7.37;;;11.10;99.90;;;;;;5096419;28;20459;-68
2023/05/25 03:56:13;;;;;;;14.80;8.53;;;11.10;99.90;;;;;;5096324;28;20453;-69
2023/05/25 03:58:40;;;;;;;13.27;7.20;;;11.10;99.90;;;;;;5096213;28;20569;-69
2023/05/25 04:01:09;;;;;;;11.27;6.90;;;11.00;99.90;;;;;;5096109;28;20463;-69
2023/05/25 04:03:35;;;;;;;13.47;7.73;;;11.00;99.90;;;;;;5095801;28;20564;-69
2023/05/25 04:06:02;;;;;;;12.47;7.50;;;11.10;99.90;;;;;;5096314;28;20559;-69
2023/05/25 04:08:30;;;;;;;9.80;7.13;;;11.20;99.90;;;;;;5096019;28;20544;-69
2023/05/25 04:10:58;;;;;;;14.90;7.60;;;11.20;99.90;;;;;;5095829;28;20856;-69
2023/05/25 04:13:25;;;;;;;11.77;8.00;;;11.20;99.90;;;;;;5095765;28;20464;-69
2023/05/25 04:15:52;;;;;;;16.03;7.83;;;11.20;99.90;;;;;;5095777;28;20552;-69
2023/05/25 04:18:19;;;;;;;11.97;8.00;;;11.30;99.90;;;;;;5095613;28;20463;-69
2023/05/25 04:20:46;;;;;;;11.40;7.60;;;11.30;99.90;;;;;;5095419;28;20975;-69
2023/05/25 04:23:13;;;;;;;13.90;7.97;;;11.30;99.90;;;;;;5095869;28;20804;-69
2023/05/25 04:25:40;;;;;;;13.87;9.10;;;11.40;99.90;;;;;;5095825;28;20529;-68
2023/05/25 04:28:11;;;;;;;10.50;8.00;;;11.50;99.90;;;;;;5095330;28;20552;-69
2023/05/25 04:30:38;;;;;;;17.00;8.43;;;11.50;99.90;;;;;;5095353;28;20876;-69
2023/05/25 04:33:05;;;;;;;17.07;8.90;;;11.50;99.90;;;;;;5095376;28;20464;-69
2023/05/25 04:35:32;;;;;;;16.13;8.80;;;11.50;99.90;;;;;;5095255;28;20936;-69
2023/05/25 04:38:01;;;;;;;10.67;7.53;;;11.50;99.90;;;;;;5095195;28;20485;-70
2023/05/25 04:40:28;;;;;;;12.07;9.00;;;11.50;99.90;;;;;;5095476;28;20611;-69
2023/05/25 04:42:55;;;;;;;16.37;8.57;;;11.60;99.90;;;;;;5094563;28;20798;-69
2023/05/25 04:45:24;;;;;;;14.37;9.77;;;11.70;99.90;;;;;;5095520;28;20464;-69
2023/05/25 04:47:51;;;;;;;13.83;8.90;;;11.70;99.90;;;;;;5095340;28;20464;-69
2023/05/25 04:50:18;;;;;;;18.20;9.87;;;11.70;99.90;;;;;;5095427;28;20464;-69
2023/05/25 04:52:45;;;;;;;13.17;9.10;;;11.70;99.90;;;;;;5095256;28;20464;-69
2023/05/25 04:55:11;;;;;;;12.30;8.80;;;11.70;99.90;;;;;;5095310;28;20741;-69
2023/05/25 04:57:38;;;;;;;16.10;10.37;;;11.80;99.90;;;;;;5095277;28;20454;-69
2023/05/25 05:00:08;;;;;;;17.17;9.93;;;11.80;99.90;;;;;;5095408;28;20795;-69
2023/05/25 05:02:36;;;;;;;16.53;9.97;;;11.90;99.90;;;;;;5095519;28;20795;-69
2023/05/25 05:05:03;;;;;;;12.10;8.97;;;11.90;99.90;;;;;;5094747;28;20453;-69
2023/05/25 05:07:30;;;;;;;12.40;9.40;;;11.90;99.90;;;;;;5095117;28;20858;-69
2023/05/25 05:09:57;;;;;;;19.40;10.27;;;12.00;99.90;;;;;;5094507;28;20928;-70
2023/05/25 05:12:24;;;;;;;16.90;9.17;;;12.00;99.90;;;;;;5095159;28;20453;-68
2023/05/25 05:14:51;;;;;;;19.23;10.30;;;12.10;99.90;;;;;;5094872;28;20793;-68
2023/05/25 05:17:18;;;;;;;19.90;10.17;;;12.20;99.90;;;;;;5094687;28;20468;-70
2023/05/25 05:19:46;;;;;;;19.33;10.20;;;12.20;99.90;;;;;;5094990;28;20846;-69
2023/05/25 05:22:14;;;;;;;16.20;9.90;;;12.30;99.90;;;;;;5094451;28;20463;-69
2023/05/25 05:24:41;;;;;;;17.70;11.07;;;12.40;99.90;;;;;;5094809;28;20481;-69
2023/05/25 05:27:09;;;;;;;20.63;10.73;;;12.40;99.90;;;;;;5094772;28;20720;-68
2023/05/25 05:29:36;;;;;;;14.80;10.40;;;12.40;99.90;;;;;;5094781;28;20796;-69
2023/05/25 05:32:03;;;;;;;18.93;9.47;;;12.50;99.90;;;;;;5094230;28;20493;-69
2023/05/25 05:34:30;;;;;;;21.13;10.70;;;12.50;99.90;;;;;;5094782;28;20465;-69
2023/05/25 05:36:59;;;;;;;15.40;9.90;;;12.60;99.90;;;;;;5094362;28;20799;-69
2023/05/25 05:39:26;;;;;;;16.83;9.93;;;12.70;99.90;;;;;;5094427;28;20462;-69
2023/05/25 05:41:53;;;;;;;19.07;10.73;;;12.70;99.90;;;;;;5094080;28;20453;-69
2023/05/25 05:44:21;;;;;;;19.50;11.23;;;12.90;99.90;;;;;;5094297;28;20481;-69
2023/05/25 05:46:48;;;;;;;23.33;10.83;;;12.90;99.90;;;;;;5094675;28;20464;-69
2023/05/25 05:49:15;;;;;;;15.07;10.83;;;12.90;99.90;;;;;;5094653;28;20453;-69
2023/05/25 05:51:41;;;;;;;21.83;10.10;;;12.90;99.90;;;;;;5093974;28;20464;-69
2023/05/25 05:54:10;;;;;;;21.67;10.87;;;13.00;99.90;;;;;;5095885;28;20547;-69
2023/05/25 05:56:37;;;;;;;17.80;10.70;;;13.00;99.90;;;;;;5098366;28;20778;-69
2023/05/25 05:59:04;;;;;;;20.50;10.57;;;13.10;99.90;;;;;;5098232;28;20586;-69
2023/05/25 06:01:31;;;;;;;19.30;10.03;;;13.20;99.90;;;;;;5098507;28;20568;-69
2023/05/25 06:03:58;;;;;;;19.70;9.47;;;13.20;99.90;;;;;;5098385;28;20584;-69
2023/05/25 06:06:26;;;;;;;18.30;9.80;;;13.20;99.90;;;;;;5098142;28;20540;-69
2023/05/25 06:08:53;;;;;;;16.57;9.70;;;13.30;99.90;;;;;;5097953;28;20453;-69
2023/05/25 06:11:21;;;;;;;21.17;9.97;;;13.30;99.90;;;;;;5098292;28;20452;-69
2023/05/25 06:13:48;;;;;;;20.33;8.40;;;13.50;99.90;;;;;;5097897;28;20470;-69
2023/05/25 06:16:17;;;;;;;15.83;8.47;;;13.70;99.90;;;;;;5098111;28;20559;-69
2023/05/25 06:18:45;;;;;;;22.43;9.43;;;13.70;99.90;;;;;;5097906;28;20496;-68
2023/05/25 06:21:11;;;;;;;16.93;8.57;;;13.70;99.90;;;;;;5097871;28;20522;-70
2023/05/25 06:23:38;;;;;;;11.87;8.27;;;13.80;99.90;;;;;;5098013;28;20477;-70
2023/05/25 06:26:06;;;;;;;16.10;8.90;;;13.80;99.90;;;;;;5097634;28;20917;-69
2023/05/25 06:28:34;;;;;;;18.30;9.50;;;13.90;99.90;;;;;;5097440;28;20457;-69
2023/05/25 06:31:01;;;;;;;18.83;9.60;;;14.20;99.90;;;;;;5097442;28;20544;-69
2023/05/25 06:33:28;;;;;;;18.63;9.37;;;14.20;99.90;;;;;;5097716;28;20465;-69
2023/05/25 06:35:59;;;;;;;20.70;8.50;;;14.20;99.90;;;;;;5097699;28;20453;-69
2023/05/25 06:38:26;;;;;;;13.03;8.13;;;14.30;99.90;;;;;;5097270;28;20508;-69
2023/05/25 06:40:52;;;;;;;13.83;7.13;;;14.50;99.90;;;;;;5097128;28;20933;-69
2023/05/25 06:43:19;;;;;;;17.83;8.50;;;14.50;99.90;;;;;;5097218;28;20495;-69
2023/05/25 06:45:49;;;;;;;21.30;8.63;;;14.60;99.90;;;;;;5097533;28;20923;-69
2023/05/25 06:48:16;;;;;;;18.73;8.40;;;14.70;99.90;;;;;;5097080;28;20559;-69
2023/05/25 06:50:42;;;;;;;15.93;6.87;;;14.80;99.90;;;;;;5097462;28;20467;-69
2023/05/25 06:53:10;;;;;;;13.13;7.90;;;14.90;99.90;;;;;;5097385;28;20485;-69
2023/05/25 06:55:36;;;;;;;16.03;7.50;;;15.00;99.90;;;;;;5097245;28;20461;-69
2023/05/25 06:58:03;;;;;;;10.33;6.17;;;15.00;99.90;;;;;;5096915;28;20500;-69
2023/05/25 07:00:30;;;;;;;15.50;7.40;;;15.00;99.90;;;;;;5096705;28;20453;-69
2023/05/25 07:02:58;;;;;;;16.40;7.50;;;15.20;99.90;;;;;;5097325;28;20489;-69
2023/05/25 07:05:26;;;;;;;16.73;7.73;;;15.30;99.90;;;;;;5096015;28;20568;-69
2023/05/25 07:07:52;;;;;;;11.10;6.43;;;15.40;99.90;;;;;;5096873;28;20479;-69
2023/05/25 07:10:19;;;;;;;18.07;6.20;;;15.40;99.90;;;;;;5096874;28;20453;-69
2023/05/25 07:12:46;;;;;;;15.77;6.60;;;15.50;99.90;;;;;;5096770;28;20925;-69
2023/05/25 07:15:14;;;;;;;12.40;7.17;;;15.50;99.90;;;;;;5097127;28;20459;-69
2023/05/25 07:17:41;;;;;;;8.90;5.33;;;15.50;99.90;;;;;;5096867;28;20454;-69
2023/05/25 07:20:11;;;;;;;12.97;5.30;;;15.60;99.90;;;;;;5096550;28;20930;-69
2023/05/25 07:22:38;;;;;;;12.40;5.40;;;15.70;99.90;;;;;;5096855;28;20855;-69
2023/05/25 07:25:06;;;;;;;12.63;5.33;;;15.80;99.90;;;;;;5096875;28;20477;-70
2023/05/25 07:27:34;;;;;;;12.10;5.53;;;15.90;99.90;;;;;;5096793;28;20964;-69
2023/05/25 07:30:01;;;;;;;11.83;4.40;;;15.90;99.90;;;;;;5096910;28;20453;-69
2023/05/25 07:32:28;;;;;;;11.83;4.87;;;16.00;99.90;;;;;;5096472;28;20792;-69
2023/05/25 07:34:55;;;;;;;13.33;4.80;;;16.00;99.90;;;;;;5096835;28;20445;-70
2023/05/25 07:37:23;;;;;;;12.40;5.53;;;16.00;99.90;;;;;;5096336;28;20983;-71
2023/05/25 07:39:50;;;;;;;10.73;4.40;;;16.10;99.90;;;;;;5096404;28;20467;-69
2023/05/25 07:42:19;;;;;;;11.03;5.60;;;16.20;99.90;;;;;;5095991;28;20503;-68
2023/05/25 07:44:46;;;;;;;10.27;4.60;;;16.20;99.90;;;;;;5096071;28;20477;-69
2023/05/25 07:47:13;;;;;;;9.30;4.93;;;16.30;99.90;;;;;;5096596;28;20846;-68
2023/05/25 07:49:40;;;;;;;13.03;3.83;;;16.30;99.90;;;;;;5096524;28;20468;-69
2023/05/25 07:52:07;;;;;;;9.23;4.77;;;16.30;99.90;;;;;;5095928;28;20463;-69
2023/05/25 07:54:38;;;;;;;9.47;4.07;;;16.50;99.90;;;;;;5096230;28;20465;-69
2023/05/25 07:57:06;;;;;;;7.53;3.57;;;16.50;99.90;;;;;;5096194;28;20852;-70
2023/05/25 07:59:33;;;;;;;7.70;4.13;;;16.50;99.90;;;;;;5096347;28;20518;-69
2023/05/25 08:02:00;;;;;;;9.30;4.43;;;16.50;99.90;;;;;;5096084;28;20544;-69
2023/05/25 08:04:27;;;;;;;9.70;4.00;;;16.50;99.90;;;;;;5096445;28;20487;-69
2023/05/25 08:06:53;;;;;;;7.33;4.13;;;16.60;99.90;;;;;;5096126;28;20453;-69
2023/05/25 08:09:20;;;;;;;7.80;4.17;;;16.70;99.90;;;;;;5095716;28;20457;-70
2023/05/25 08:11:49;;;;;;;7.43;4.40;;;16.80;99.90;;;;;;5096039;28;20976;-70
2023/05/25 08:14:16;;;;;;;12.53;5.10;;;16.80;99.90;;;;;;5095919;28;20463;-70
2023/05/25 08:16:43;;;;;;;8.00;4.30;;;16.80;99.90;;;;;;5095371;28;20454;-70
2023/05/25 08:19:10;;;;;;;12.57;4.37;;;16.80;99.90;;;;;;5095419;28;20457;-70
2023/05/25 08:21:38;;;;;;;6.33;3.73;;;16.80;99.90;;;;;;5095730;28;20535;-70
2023/05/25 08:24:07;;;;;;;10.17;4.17;;;16.80;99.90;;;;;;5095439;28;20498;-70
2023/05/25 08:26:35;;;;;;;6.23;3.90;;;16.80;99.90;;;;;;5095707;28;21021;-69
2023/05/25 08:29:03;;;;;;;8.83;3.53;;;16.90;99.90;;;;;;5095573;28;20453;-69
2023/05/25 08:31:32;;;;;;;8.17;3.50;;;17.10;99.90;;;;;;5095371;28;20457;-69
2023/05/25 08:33:59;;;;;;;8.07;3.77;;;16.90;99.90;;;;;;5095577;28;20843;-69
2023/05/25 08:36:27;;;;;;;6.13;3.37;;;16.90;99.90;;;;;;5095762;28;20472;-68
2023/05/25 08:38:53;;;;;;;9.83;3.77;;;17.00;99.90;;;;;;5095272;28;20962;-68
2023/05/25 08:41:21;;;;;;;8.90;4.27;;;17.10;99.90;;;;;;5095159;28;20454;-68
2023/05/25 08:43:48;;;;;;;5.33;3.93;;;17.20;99.90;;;;;;5094951;28;20909;-68
2023/05/25 08:46:28;;;;;;;8.57;4.50;;;17.20;99.90;;;;;;5095037;28;20553;-69
2023/05/25 08:49:00;;;;;;;10.27;4.10;;;17.40;99.90;;;;;;5095135;28;20437;-69
2023/05/25 08:51:31;;;;;;;9.70;3.70;;;17.30;99.90;;;;;;5095258;28;20942;-69
2023/05/25 08:54:04;;;;;;;9.40;5.13;;;17.40;99.90;;;;;;5095311;28;20510;-69
2023/05/25 08:56:36;;;;;;;7.27;4.87;;;17.50;99.90;;;;;;5095206;28;20744;-69
2023/05/25 08:59:14;;;;;;;8.57;4.10;;;17.50;99.90;;;;;;5094735;28;20477;-69
2023/05/25 09:01:46;;;;;;;8.50;3.87;;;17.20;99.90;;;;;;5095100;28;20532;-69
2023/05/25 09:04:13;;;;;;;7.70;4.50;;;17.10;99.90;;;;;;5095090;28;20476;-68
2023/05/25 09:06:41;;;;;;;9.10;4.57;;;17.10;99.90;;;;;;5094784;28;20546;-69
2023/05/25 09:09:09;;;;;;;8.43;4.13;;;17.00;99.90;;;;;;5095078;28;20466;-69
2023/05/25 09:11:36;;;;;;;10.00;3.93;;;17.10;99.90;;;;;;5094633;28;20959;-69
2023/05/25 09:14:03;;;;;;;7.37;4.13;;;17.30;99.90;;;;;;5094397;28;20536;-69
2023/05/25 09:16:32;;;;;;;7.57;3.90;;;17.30;99.90;;;;;;5094450;28;20489;-68
2023/05/25 09:19:00;;;;;;;7.07;3.90;;;17.50;99.90;;;;;;5094657;28;20921;-68
2023/05/25 09:21:27;;;;;;;10.43;3.97;;;17.70;99.90;;;;;;5094894;28;20543;-68
2023/05/25 09:23:54;;;;;;;12.43;4.80;;;17.90;99.90;;;;;;5094200;28;20547;-68
2023/05/25 09:26:21;;;;;;;7.90;4.40;;;17.60;99.90;;;;;;5094374;28;20453;-69
2023/05/25 09:28:48;;;;;;;9.13;5.63;;;17.60;99.90;;;;;;5094418;28;20454;-68
2023/05/25 09:31:15;;;;;;;6.90;3.80;;;17.60;99.90;;;;;;5094627;28;20771;-69
2023/05/25 09:33:43;;;;;;;8.20;4.17;;;17.70;99.90;;;;;;5094739;28;20453;-69
2023/05/25 09:36:16;;;;;;;8.13;4.90;;;17.80;99.90;;;;;;5094436;28;20544;-69
2023/05/25 09:38:43;;;;;;;9.47;4.27;;;18.00;99.90;;;;;;5094388;28;20532;-69
2023/05/25 09:41:12;;;;;;;15.97;6.23;;;18.10;99.90;;;;;;5094522;28;20434;-69
2023/05/25 09:43:39;;;;;;;14.40;4.80;;;18.20;99.90;;;;;;5093821;28;20918;-69
2023/05/25 09:46:05;;;;;;;12.77;5.73;;;18.20;99.90;;;;;;5094244;28;20474;-69
2023/05/25 09:48:33;;;;;;;10.33;5.40;;;18.40;99.90;;;;;;5094496;28;20466;-69
2023/05/25 09:51:00;;;;;;;10.07;5.40;;;18.40;99.90;;;;;;5093815;28;20511;-69
2023/05/25 09:53:29;;;;;;;7.77;6.07;;;18.30;99.90;;;;;;5093893;28;20462;-69
2023/05/25 09:55:57;;;;;;;8.90;5.27;;;18.30;99.90;;;;;;5094119;28;20453;-69
2023/05/25 09:58:24;;;;;;;11.97;5.30;;;18.30;99.90;;;;;;5094301;28;20782;-69
2023/05/25 10:00:54;;;;;;;13.70;4.37;;;18.10;99.90;;;;;;5093893;28;20555;-69
2023/05/25 10:03:21;;;;;;;5.80;4.23;;;18.00;99.90;;;;;;5094151;28;20493;-69
2023/05/25 10:05:48;;;;;;;5.83;4.43;;;17.80;99.90;;;;;;5094028;28;20808;-69
2023/05/25 10:08:17;;;;;;;8.00;3.97;;;17.90;99.90;;;;;;5094117;28;20825;-69
2023/05/25 10:10:46;;;;;;;10.37;3.83;;;17.90;99.90;;;;;;5093730;28;20855;-69
2023/05/25 10:13:14;;;;;;;7.03;4.30;;;18.00;99.90;;;;;;5093667;28;20548;-69
2023/05/25 10:15:45;;;;;;;7.77;4.00;;;18.10;99.90;;;;;;5094298;28;20450;-69
2023/05/25 10:18:14;;;;;;;8.10;4.70;;;17.90;99.90;;;;;;5094005;28;20453;-69
2023/05/25 10:20:41;;;;;;;10.67;4.37;;;17.90;99.90;;;;;;5094099;28;20932;-68
2023/05/25 10:23:12;;;;;;;7.83;5.07;;;18.00;99.90;;;;;;5094188;28;20453;-70
2023/05/25 10:25:43;;;;;;;11.53;4.50;;;18.10;99.90;;;;;;5093736;28;20556;-70
2023/05/25 10:28:18;;;;;;;6.60;4.50;;;18.30;99.90;;;;;;5094046;28;20438;-70
2023/05/25 10:30:46;;;;;;;7.57;4.80;;;18.40;99.90;;;;;;5093571;28;20437;-70
2023/05/25 10:33:13;;;;;;;9.30;4.80;;;18.50;99.90;;;;;;5093925;28;20544;-68
2023/05/25 10:35:43;;;;;;;8.73;4.50;;;18.60;99.90;;;;;;5093420;28;20475;-69
2023/05/25 10:38:11;;;;;;;6.83;5.07;;;18.50;99.90;;;;;;5093269;28;20487;-69
2023/05/25 10:40:39;;;;;;;8.30;4.20;;;18.50;99.90;;;;;;5094463;28;20830;-69
2023/05/25 10:43:06;;;;;;;9.03;4.90;;;18.50;99.90;;;;;;5097436;28;20452;-69
2023/05/25 10:45:35;;;;;;;7.57;4.67;;;18.50;99.90;;;;;;5097380;28;20507;-69
2023/05/25 10:48:02;;;;;;;10.17;4.37;;;18.60;99.90;;;;;;5097208;28;20453;-69
2023/05/25 10:50:35;;;;;;;7.53;4.77;;;18.70;99.90;;;;;;5097494;28;20543;-69
2023/05/25 10:53:05;;;;;;;7.37;4.40;;;18.80;99.90;;;;;;5097563;28;20441;-69
2023/05/25 10:55:42;;;;;;;9.83;4.60;;;18.80;99.90;;;;;;5097794;28;20893;-69
2023/05/25 10:58:11;;;;;;;6.97;4.70;;;19.00;99.90;;;;;;5097649;28;20543;-69
2023/05/25 11:00:40;;;;;;;10.43;4.37;;;19.00;99.90;;;;;;5097561;28;20457;-68
2023/05/25 11:03:07;;;;;;;7.27;4.50;;;18.70;99.90;;;;;;5097175;28;20453;-68
2023/05/25 11:05:37;;;;;;;7.03;5.23;;;18.40;99.90;;;;;;5097051;28;20990;-68
2023/05/25 11:08:05;;;;;;;9.50;4.10;;;18.40;99.90;;;;;;5097018;28;20457;-69
2023/05/25 11:10:52;;;;;;;13.13;4.70;;;18.50;99.90;;;;;;5097613;28;20467;-68
2023/05/25 11:13:36;;;;;;;17.53;5.60;;;18.30;99.90;;;;;;5096721;28;20464;-68
2023/05/25 11:16:23;;;;;;;7.60;4.53;;;18.40;99.90;;;;;;5096697;28;20895;-69
2023/05/25 11:18:52;;;;;;;9.93;4.63;;;18.30;99.90;;;;;;5096927;28;20751;-69
2023/05/25 11:21:42;;;;;;;6.10;4.50;;;18.50;99.90;;;;;;5096488;28;20457;-68
2023/05/25 11:24:14;;;;;;;8.70;4.60;;;18.50;99.90;;;;;;5088644;28;20855;-68
2023/05/25 11:26:59;;;;;;;8.10;5.23;;;18.70;99.90;;;;;;5096639;28;20491;-68
2023/05/25 11:29:31;;;;;;;7.47;4.80;;;18.90;99.90;;;;;;5096517;28;20453;-68
2023/05/25 11:31:59;;;;;;;9.27;4.80;;;19.00;99.90;;;;;;5096981;28;20544;-68
2023/05/25 11:34:27;;;;;;;14.67;4.90;;;19.50;99.90;;;;;;5096468;28;20772;-69
2023/05/25 11:36:57;;;;;;;8.07;5.10;;;20.40;99.90;;;;;;5096330;28;20498;-69
2023/05/25 11:39:24;;;;;;;8.23;4.60;;;21.10;99.90;;;;;;5096118;28;20514;-67
2023/05/25 11:41:54;;;;;;;7.10;4.57;;;21.40;99.90;;;;;;5096477;28;20457;-70
2023/05/25 11:44:29;;;;;;;5.97;4.03;;;20.70;99.90;;;;;;5095962;28;20441;-70
2023/05/25 11:47:01;;;;;;;5.47;3.80;;;20.50;99.90;;;;;;5096318;28;20459;-69
2023/05/25 11:49:28;;;;;;;8.43;4.23;;;20.40;99.90;;;;;;5096582;28;20452;-69
2023/05/25 11:51:57;;;;;;;8.93;4.60;;;20.10;99.90;;;;;;5095895;28;20811;-69
2023/05/25 11:54:25;;;;;;;9.70;4.90;;;19.50;99.90;;;;;;5095878;28;20454;-68
2023/05/25 11:56:56;;;;;;;7.73;4.73;;;18.70;99.90;;;;;;5095551;28;20449;-69
2023/05/25 11:59:23;;;;;;;5.57;4.53;;;19.30;99.90;;;;;;5095597;28;20450;-69
2023/05/25 12:01:57;;;;;;;7.43;4.70;;;20.50;99.90;;;;;;5095574;28;20934;-67
2023/05/25 12:04:25;;;;;;;9.20;4.80;;;21.90;99.90;;;;;;5096225;28;20442;-67
2023/05/25 12:06:52;;;;;;;6.33;4.10;;;22.20;99.90;;;;;;5095681;28;20838;-67
2023/05/25 12:09:20;;;;;;;5.53;4.60;;;21.90;99.00;;;;;;5095628;28;20833;-67
2023/05/25 12:11:48;;;;;;;7.33;4.63;;;21.20;99.90;;;;;;5095323;28;20457;-68
2023/05/25 12:14:15;;;;;;;6.60;5.07;;;21.00;99.90;;;;;;5095943;28;20555;-68
2023/05/25 12:16:43;;;;;;;9.00;5.30;;;20.40;99.90;;;;;;5095532;28;20540;-68
2023/05/25 12:19:10;;;;;;;8.30;5.00;;;20.40;99.90;;;;;;5095338;28;20942;-69
2023/05/25 12:21:40;;;;;;;8.27;5.03;;;20.30;99.90;;;;;;5095899;28;20461;-68
2023/05/25 12:24:07;;;;;;;12.40;5.93;;;20.60;99.90;;;;;;5095720;28;20453;-68
2023/05/25 12:26:34;;;;;;;8.23;5.10;;;20.90;99.90;;;;;;5095551;28;20469;-68
2023/05/25 12:29:03;;;;;;;7.60;5.10;;;20.90;99.90;;;;;;5095775;28;20840;-68
2023/05/25 12:31:31;;;;;;;9.73;4.93;;;20.90;99.90;;;;;;5095165;28;20536;-68
2023/05/25 12:34:07;;;;;;;12.90;5.80;;;20.90;99.90;;;;;;5094931;28;20457;-68
2023/05/25 12:36:45;;;;;;;10.00;5.40;;;20.90;99.90;;;;;;5095072;28;20627;-68
2023/05/25 12:39:13;;;;;;;8.50;5.60;;;21.10;99.90;;;;;;5095665;28;20463;-68
2023/05/25 12:41:45;;;;;;;7.30;5.60;;;21.80;99.90;;;;;;5095256;28;20464;-68
2023/05/25 12:44:20;;;;;;;9.10;6.10;;;22.40;99.90;;;;;;5094945;28;21002;-70
2023/05/25 12:46:47;;;;;;;8.10;5.97;;;22.50;99.90;;;;;;5095154;28;20492;-69